AFL2215 UUEE-ULLI
Flight info
| Callsign | AFL2215 |
|---|---|
| Flight time | 0h 57m |
| Altitude | 38000 |
| Route | TOKNU3H TOKNU L4 NUDKO T561 ODATI T875 GENPA GENPA1V |
| Aircraft | A20N/M-SDE2E3FGHIRWXY/LB1 |
Departure
| Time | 2026-05-05 17:09 |
|---|---|
| Airport | Sheremetyevo International Airport (UUEE) |
Arrival
| Time | 2026-05-05 18:06 |
|---|---|
| Airport | Pulkovo Airport (ULLI) |
| Time | Latitude | Longitude | Altitude | Speed | Heading |
|---|---|---|---|---|---|
| 2026-05-05 16:27 | 55.97805 | 37.41708 | 621 ft | 0 kts | 48° |
| 2026-05-05 17:00 | 55.97797 | 37.41694 | 622 ft | 2 kts | 45° |
| 2026-05-05 17:00 | 55.97788 | 37.41674 | 621 ft | 2 kts | 50° |
| 2026-05-05 17:00 | 55.97778 | 37.41654 | 621 ft | 2 kts | 48° |
| 2026-05-05 17:01 | 55.97768 | 37.41634 | 621 ft | 2 kts | 44° |
| 2026-05-05 17:01 | 55.97761 | 37.41611 | 621 ft | 2 kts | 76° |
| 2026-05-05 17:01 | 55.97759 | 37.41586 | 621 ft | 2 kts | 94° |
| 2026-05-05 17:01 | 55.97763 | 37.41559 | 621 ft | 2 kts | 114° |
| 2026-05-05 17:02 | 55.97770 | 37.41537 | 622 ft | 2 kts | 133° |
| 2026-05-05 17:02 | 55.97782 | 37.41521 | 622 ft | 2 kts | 152° |
| 2026-05-05 17:02 | 55.97790 | 37.41515 | 622 ft | 0 kts | 164° |
| 2026-05-05 17:02 | 55.97792 | 37.41513 | 622 ft | 0 kts | 165° |
| 2026-05-05 17:04 | 55.97741 | 37.41537 | 621 ft | 11 kts | 165° |
| 2026-05-05 17:04 | 55.97657 | 37.41575 | 621 ft | 13 kts | 166° |
| 2026-05-05 17:05 | 55.97603 | 37.41682 | 619 ft | 14 kts | 72° |
| 2026-05-05 17:05 | 55.97630 | 37.41866 | 618 ft | 15 kts | 75° |
| 2026-05-05 17:05 | 55.97659 | 37.42070 | 614 ft | 18 kts | 76° |
| 2026-05-05 17:05 | 55.97684 | 37.42245 | 613 ft | 12 kts | 71° |
| 2026-05-05 17:06 | 55.97710 | 37.42405 | 611 ft | 17 kts | 76° |
| 2026-05-05 17:06 | 55.97740 | 37.42606 | 610 ft | 14 kts | 75° |
| 2026-05-05 17:06 | 55.97758 | 37.42750 | 608 ft | 8 kts | 102° |
| 2026-05-05 17:06 | 55.97699 | 37.42806 | 607 ft | 11 kts | 164° |
| 2026-05-05 17:07 | 55.97619 | 37.42826 | 606 ft | 11 kts | 202° |
| 2026-05-05 17:07 | 55.97581 | 37.42714 | 608 ft | 6 kts | 255° |
| 2026-05-05 17:07 | 55.97578 | 37.42692 | 608 ft | 0 kts | 255° |
| 2026-05-05 17:08 | 55.97555 | 37.42540 | 607 ft | 46 kts | 255° |
| 2026-05-05 17:08 | 55.97404 | 37.41517 | 619 ft | 120 kts | 255° |
| 2026-05-05 17:08 | 55.97134 | 37.39728 | 652 ft | 175 kts | 252° |
| 2026-05-05 17:09 | 55.96794 | 37.37592 | 1265 ft | 182 kts | 252° |
| 2026-05-05 17:09 | 55.96417 | 37.35456 | 2033 ft | 188 kts | 252° |
| 2026-05-05 17:09 | 55.96022 | 37.33240 | 2848 ft | 190 kts | 254° |
| 2026-05-05 17:09 | 55.95654 | 37.30891 | 3341 ft | 211 kts | 256° |
| 2026-05-05 17:10 | 55.95345 | 37.28211 | 3878 ft | 231 kts | 270° |
| 2026-05-05 17:10 | 55.95829 | 37.25449 | 4513 ft | 248 kts | 302° |
| 2026-05-05 17:10 | 55.96944 | 37.23081 | 5341 ft | 258 kts | 309° |
| 2026-05-05 17:10 | 55.98177 | 37.20741 | 6301 ft | 261 kts | 309° |
| 2026-05-05 17:11 | 55.99384 | 37.18388 | 7268 ft | 263 kts | 308° |
| 2026-05-05 17:11 | 56.00588 | 37.15951 | 8232 ft | 266 kts | 307° |
| 2026-05-05 17:11 | 56.01795 | 37.13444 | 9105 ft | 270 kts | 306° |
| 2026-05-05 17:11 | 56.03002 | 37.10896 | 9962 ft | 273 kts | 306° |
| 2026-05-05 17:12 | 56.04238 | 37.08261 | 10641 ft | 284 kts | 306° |
| 2026-05-05 17:12 | 56.05528 | 37.05479 | 11089 ft | 302 kts | 306° |
| 2026-05-05 17:12 | 56.06895 | 37.02519 | 11539 ft | 319 kts | 306° |
| 2026-05-05 17:12 | 56.08336 | 36.99401 | 12181 ft | 329 kts | 306° |
| 2026-05-05 17:13 | 56.09782 | 36.96269 | 12973 ft | 332 kts | 306° |
| 2026-05-05 17:13 | 56.11262 | 36.93072 | 13791 ft | 335 kts | 306° |
| 2026-05-05 17:13 | 56.12732 | 36.89901 | 14557 ft | 338 kts | 306° |
| 2026-05-05 17:13 | 56.14243 | 36.86627 | 15312 ft | 341 kts | 306° |
| 2026-05-05 17:14 | 56.15733 | 36.83387 | 16018 ft | 345 kts | 306° |
| 2026-05-05 17:14 | 56.17262 | 36.80050 | 16715 ft | 349 kts | 306° |
| 2026-05-05 17:14 | 56.18800 | 36.76684 | 17414 ft | 352 kts | 306° |
| 2026-05-05 17:14 | 56.20357 | 36.73272 | 18080 ft | 355 kts | 306° |
| 2026-05-05 17:15 | 56.21912 | 36.69855 | 18726 ft | 359 kts | 306° |
| 2026-05-05 17:15 | 56.23492 | 36.66386 | 19415 ft | 361 kts | 306° |
| 2026-05-05 17:15 | 56.25071 | 36.62911 | 20069 ft | 363 kts | 306° |
| 2026-05-05 17:15 | 56.26654 | 36.59417 | 20681 ft | 366 kts | 306° |
| 2026-05-05 17:16 | 56.28264 | 36.55857 | 21211 ft | 371 kts | 306° |
| 2026-05-05 17:16 | 56.29900 | 36.52233 | 21762 ft | 375 kts | 306° |
| 2026-05-05 17:16 | 56.31533 | 36.48615 | 22352 ft | 377 kts | 305° |
| 2026-05-05 17:16 | 56.33189 | 36.44935 | 22933 ft | 379 kts | 306° |
| 2026-05-05 17:17 | 56.34771 | 36.41192 | 23485 ft | 379 kts | 301° |
| 2026-05-05 17:17 | 56.36136 | 36.37168 | 24030 ft | 379 kts | 296° |
| 2026-05-05 17:17 | 56.37272 | 36.32892 | 24541 ft | 380 kts | 290° |
| 2026-05-05 17:17 | 56.38243 | 36.28487 | 25061 ft | 382 kts | 289° |
| 2026-05-05 17:18 | 56.39196 | 36.24008 | 25568 ft | 384 kts | 288° |
| 2026-05-05 17:18 | 56.40150 | 36.19506 | 26152 ft | 384 kts | 288° |
| 2026-05-05 17:18 | 56.41099 | 36.15011 | 26659 ft | 386 kts | 288° |
| 2026-05-05 17:18 | 56.42052 | 36.10489 | 27118 ft | 388 kts | 288° |
| 2026-05-05 17:19 | 56.43009 | 36.05932 | 27538 ft | 390 kts | 288° |
| 2026-05-05 17:19 | 56.44035 | 36.01431 | 27982 ft | 393 kts | 292° |
| 2026-05-05 17:19 | 56.45270 | 35.97076 | 28371 ft | 397 kts | 296° |
| 2026-05-05 17:19 | 56.46757 | 35.92820 | 28776 ft | 401 kts | 301° |
| 2026-05-05 17:20 | 56.48432 | 35.88831 | 29165 ft | 405 kts | 305° |
| 2026-05-05 17:20 | 56.50231 | 35.84867 | 29532 ft | 407 kts | 306° |
| 2026-05-05 17:20 | 56.52027 | 35.80962 | 29872 ft | 409 kts | 306° |
| 2026-05-05 17:20 | 56.53860 | 35.76991 | 30218 ft | 411 kts | 306° |
| 2026-05-05 17:21 | 56.55665 | 35.73066 | 30530 ft | 413 kts | 306° |
| 2026-05-05 17:21 | 56.57503 | 35.69060 | 30852 ft | 413 kts | 306° |
| 2026-05-05 17:21 | 56.59319 | 35.65102 | 31258 ft | 412 kts | 306° |
| 2026-05-05 17:22 | 56.62963 | 35.57119 | 32030 ft | 410 kts | 305° |
| 2026-05-05 17:22 | 56.64764 | 35.53160 | 32379 ft | 409 kts | 305° |
| 2026-05-05 17:22 | 56.66556 | 35.49211 | 32724 ft | 408 kts | 305° |
| 2026-05-05 17:22 | 56.68364 | 35.45227 | 33067 ft | 407 kts | 305° |
| 2026-05-05 17:23 | 56.70146 | 35.41289 | 33401 ft | 406 kts | 305° |
| 2026-05-05 17:23 | 56.71924 | 35.37357 | 33718 ft | 405 kts | 305° |
| 2026-05-05 17:23 | 56.73723 | 35.33375 | 34020 ft | 405 kts | 304° |
| 2026-05-05 17:23 | 56.75503 | 35.29418 | 34329 ft | 404 kts | 304° |
| 2026-05-05 17:24 | 56.77269 | 35.25483 | 34627 ft | 403 kts | 304° |
| 2026-05-05 17:24 | 56.79034 | 35.21552 | 34917 ft | 402 kts | 304° |
| 2026-05-05 17:24 | 56.80784 | 35.17656 | 35146 ft | 401 kts | 303° |
| 2026-05-05 17:24 | 56.82552 | 35.13707 | 35369 ft | 401 kts | 303° |
| 2026-05-05 17:25 | 56.84315 | 35.09760 | 35576 ft | 401 kts | 303° |
| 2026-05-05 17:25 | 56.85486 | 35.07135 | 35709 ft | 400 kts | 304° |
| 2026-05-05 17:25 | 56.87880 | 35.02044 | 35971 ft | 402 kts | 307° |
| 2026-05-05 17:25 | 56.89820 | 34.98366 | 36181 ft | 403 kts | 310° |
| 2026-05-05 17:26 | 56.91877 | 34.94843 | 36409 ft | 404 kts | 313° |
| 2026-05-05 17:26 | 56.94014 | 34.91547 | 36614 ft | 404 kts | 315° |
| 2026-05-05 17:26 | 56.96232 | 34.88462 | 36818 ft | 406 kts | 318° |
| 2026-05-05 17:26 | 56.98588 | 34.85501 | 36965 ft | 409 kts | 320° |
| 2026-05-05 17:27 | 57.00948 | 34.82655 | 37050 ft | 411 kts | 320° |
| 2026-05-05 17:27 | 57.03334 | 34.79799 | 37156 ft | 413 kts | 320° |
| 2026-05-05 17:27 | 57.05757 | 34.76896 | 37273 ft | 414 kts | 321° |
| 2026-05-05 17:27 | 57.08143 | 34.74035 | 37390 ft | 416 kts | 320° |
| 2026-05-05 17:28 | 57.10554 | 34.71137 | 37520 ft | 416 kts | 321° |
| 2026-05-05 17:28 | 57.15419 | 34.65305 | 37590 ft | 422 kts | 321° |
| 2026-05-05 17:29 | 57.20335 | 34.59379 | 37617 ft | 427 kts | 321° |
| 2026-05-05 17:29 | 57.25326 | 34.53332 | 37654 ft | 432 kts | 321° |
| 2026-05-05 17:30 | 57.30360 | 34.47205 | 37632 ft | 437 kts | 321° |
| 2026-05-05 17:30 | 57.35420 | 34.41021 | 37584 ft | 442 kts | 321° |
| 2026-05-05 17:31 | 57.40569 | 34.34706 | 37517 ft | 446 kts | 320° |
| 2026-05-05 17:31 | 57.45727 | 34.28340 | 37624 ft | 447 kts | 320° |
| 2026-05-05 17:32 | 57.50887 | 34.21951 | 37693 ft | 448 kts | 320° |
| 2026-05-05 17:32 | 57.56048 | 34.15551 | 37768 ft | 448 kts | 320° |
| 2026-05-05 17:33 | 57.61196 | 34.09154 | 37760 ft | 449 kts | 320° |
| 2026-05-05 17:33 | 57.66364 | 34.02707 | 37759 ft | 450 kts | 320° |
| 2026-05-05 17:34 | 57.71572 | 33.96190 | 37749 ft | 449 kts | 320° |
| 2026-05-05 17:34 | 57.76725 | 33.89724 | 37769 ft | 449 kts | 320° |
| 2026-05-05 17:35 | 57.81882 | 33.83228 | 37737 ft | 450 kts | 320° |
| 2026-05-05 17:35 | 57.87008 | 33.76619 | 37744 ft | 448 kts | 317° |
| 2026-05-05 17:36 | 57.91879 | 33.69407 | 37722 ft | 447 kts | 315° |
| 2026-05-05 17:36 | 57.96684 | 33.62082 | 37734 ft | 447 kts | 315° |
| 2026-05-05 17:37 | 58.01507 | 33.54714 | 37741 ft | 447 kts | 315° |
| 2026-05-05 17:37 | 58.06289 | 33.47398 | 37740 ft | 447 kts | 315° |
| 2026-05-05 17:38 | 58.11093 | 33.40033 | 37738 ft | 448 kts | 316° |
| 2026-05-05 17:38 | 58.15916 | 33.32646 | 37745 ft | 447 kts | 315° |
| 2026-05-05 17:39 | 58.20710 | 33.25223 | 37737 ft | 447 kts | 315° |
| 2026-05-05 17:39 | 58.25502 | 33.17783 | 37726 ft | 446 kts | 315° |
| 2026-05-05 17:40 | 58.30266 | 33.10371 | 37553 ft | 441 kts | 315° |
| 2026-05-05 17:40 | 58.32627 | 33.06694 | 37072 ft | 438 kts | 314° |
| 2026-05-05 17:40 | 58.34970 | 33.03040 | 36418 ft | 436 kts | 314° |
| 2026-05-05 17:40 | 58.37275 | 32.99434 | 35971 ft | 433 kts | 314° |
| 2026-05-05 17:41 | 58.39571 | 32.95832 | 35567 ft | 430 kts | 314° |
| 2026-05-05 17:41 | 58.41876 | 32.92211 | 35099 ft | 427 kts | 313° |
| 2026-05-05 17:41 | 58.44126 | 32.88667 | 34457 ft | 426 kts | 313° |
| 2026-05-05 17:41 | 58.46397 | 32.85077 | 33684 ft | 425 kts | 313° |
| 2026-05-05 17:42 | 58.48654 | 32.81508 | 32856 ft | 426 kts | 313° |
| 2026-05-05 17:42 | 58.50932 | 32.77899 | 31969 ft | 428 kts | 313° |
| 2026-05-05 17:42 | 58.53205 | 32.74291 | 31079 ft | 429 kts | 313° |
| 2026-05-05 17:42 | 58.55496 | 32.70653 | 30154 ft | 429 kts | 313° |
| 2026-05-05 17:43 | 58.57785 | 32.67008 | 29146 ft | 430 kts | 313° |
| 2026-05-05 17:43 | 58.60059 | 32.63378 | 28272 ft | 428 kts | 313° |
| 2026-05-05 17:43 | 58.62330 | 32.59761 | 27631 ft | 421 kts | 313° |
| 2026-05-05 17:43 | 58.64529 | 32.56254 | 26962 ft | 416 kts | 313° |
| 2026-05-05 17:44 | 58.66734 | 32.52725 | 26263 ft | 411 kts | 313° |
| 2026-05-05 17:44 | 58.68902 | 32.49253 | 25578 ft | 407 kts | 313° |
| 2026-05-05 17:44 | 58.71072 | 32.45765 | 24878 ft | 403 kts | 313° |
| 2026-05-05 17:44 | 58.73196 | 32.42343 | 24170 ft | 401 kts | 313° |
| 2026-05-05 17:45 | 58.75310 | 32.38932 | 23584 ft | 395 kts | 313° |
| 2026-05-05 17:45 | 58.77372 | 32.35606 | 23084 ft | 389 kts | 313° |
| 2026-05-05 17:45 | 58.79431 | 32.32266 | 22598 ft | 383 kts | 312° |
| 2026-05-05 17:45 | 58.81429 | 32.29014 | 22107 ft | 377 kts | 312° |
| 2026-05-05 17:46 | 58.83430 | 32.25756 | 21622 ft | 373 kts | 312° |
| 2026-05-05 17:46 | 58.85374 | 32.22588 | 21131 ft | 369 kts | 312° |
| 2026-05-05 17:46 | 58.87326 | 32.19406 | 20638 ft | 365 kts | 312° |
| 2026-05-05 17:46 | 58.89235 | 32.16292 | 20158 ft | 361 kts | 312° |
| 2026-05-05 17:47 | 58.91148 | 32.13168 | 19664 ft | 358 kts | 312° |
| 2026-05-05 17:47 | 58.93023 | 32.10099 | 19171 ft | 355 kts | 312° |
| 2026-05-05 17:47 | 58.94878 | 32.07062 | 18697 ft | 352 kts | 312° |
| 2026-05-05 17:47 | 58.96740 | 32.04012 | 18206 ft | 349 kts | 312° |
| 2026-05-05 17:48 | 58.98594 | 32.00966 | 17728 ft | 347 kts | 312° |
| 2026-05-05 17:48 | 59.00413 | 31.97977 | 17263 ft | 344 kts | 312° |
| 2026-05-05 17:48 | 59.02228 | 31.94988 | 16782 ft | 342 kts | 312° |
| 2026-05-05 17:48 | 59.04009 | 31.92053 | 16310 ft | 340 kts | 313° |
| 2026-05-05 17:49 | 59.05801 | 31.89093 | 15847 ft | 338 kts | 312° |
| 2026-05-05 17:49 | 59.07578 | 31.86155 | 15384 ft | 335 kts | 313° |
| 2026-05-05 17:49 | 59.09334 | 31.83244 | 14928 ft | 333 kts | 313° |
| 2026-05-05 17:49 | 59.11063 | 31.80256 | 14472 ft | 328 kts | 310° |
| 2026-05-05 17:50 | 59.12705 | 31.77216 | 14034 ft | 326 kts | 309° |
| 2026-05-05 17:50 | 59.14300 | 31.74215 | 13588 ft | 323 kts | 309° |
| 2026-05-05 17:50 | 59.15914 | 31.71162 | 13143 ft | 321 kts | 309° |
| 2026-05-05 17:50 | 59.17508 | 31.68141 | 12689 ft | 319 kts | 309° |
| 2026-05-05 17:51 | 59.19079 | 31.65156 | 12246 ft | 318 kts | 309° |
| 2026-05-05 17:51 | 59.20654 | 31.62160 | 11799 ft | 316 kts | 309° |
| 2026-05-05 17:51 | 59.22204 | 31.59210 | 11361 ft | 314 kts | 309° |
| 2026-05-05 17:51 | 59.23770 | 31.56224 | 10914 ft | 313 kts | 309° |
| 2026-05-05 17:52 | 59.25306 | 31.53291 | 10483 ft | 311 kts | 309° |
| 2026-05-05 17:52 | 59.26840 | 31.50361 | 10147 ft | 304 kts | 309° |
| 2026-05-05 17:52 | 59.28312 | 31.47551 | 9978 ft | 292 kts | 309° |
| 2026-05-05 17:52 | 59.29726 | 31.44853 | 9875 ft | 278 kts | 309° |
| 2026-05-05 17:53 | 59.31078 | 31.42265 | 9791 ft | 265 kts | 309° |
| 2026-05-05 17:53 | 59.32376 | 31.39774 | 9569 ft | 259 kts | 309° |
| 2026-05-05 17:53 | 59.33645 | 31.37320 | 9241 ft | 258 kts | 309° |
| 2026-05-05 17:53 | 59.34917 | 31.34860 | 8939 ft | 256 kts | 308° |
| 2026-05-05 17:54 | 59.36155 | 31.32457 | 8643 ft | 254 kts | 308° |
| 2026-05-05 17:54 | 59.37409 | 31.30020 | 8331 ft | 252 kts | 308° |
| 2026-05-05 17:54 | 59.38644 | 31.27622 | 8042 ft | 250 kts | 308° |
| 2026-05-05 17:54 | 59.39866 | 31.25252 | 7750 ft | 249 kts | 308° |
| 2026-05-05 17:55 | 59.41099 | 31.22862 | 7456 ft | 247 kts | 308° |
| 2026-05-05 17:55 | 59.42318 | 31.20499 | 7157 ft | 246 kts | 308° |
| 2026-05-05 17:55 | 59.43517 | 31.18171 | 6870 ft | 245 kts | 308° |
| 2026-05-05 17:55 | 59.44733 | 31.15808 | 6577 ft | 243 kts | 308° |
| 2026-05-05 17:56 | 59.45915 | 31.13505 | 6304 ft | 242 kts | 309° |
| 2026-05-05 17:56 | 59.47106 | 31.11180 | 6013 ft | 241 kts | 309° |
| 2026-05-05 17:56 | 59.48301 | 31.08847 | 5718 ft | 240 kts | 309° |
| 2026-05-05 17:56 | 59.49479 | 31.06543 | 5435 ft | 239 kts | 309° |
| 2026-05-05 17:57 | 59.50648 | 31.04257 | 5150 ft | 238 kts | 310° |
| 2026-05-05 17:57 | 59.51802 | 31.01918 | 5003 ft | 247 kts | 307° |
| 2026-05-05 17:57 | 59.52949 | 30.99335 | 4932 ft | 251 kts | 307° |
| 2026-05-05 17:57 | 59.54089 | 30.96734 | 4835 ft | 251 kts | 307° |
| 2026-05-05 17:58 | 59.55230 | 30.94130 | 4782 ft | 250 kts | 307° |
| 2026-05-05 17:58 | 59.56352 | 30.91562 | 4760 ft | 250 kts | 307° |
| 2026-05-05 17:58 | 59.57484 | 30.88968 | 4751 ft | 250 kts | 307° |
| 2026-05-05 17:58 | 59.58611 | 30.86387 | 4744 ft | 249 kts | 307° |
| 2026-05-05 17:59 | 59.59752 | 30.83769 | 4739 ft | 249 kts | 307° |
| 2026-05-05 17:59 | 59.60875 | 30.81189 | 4722 ft | 248 kts | 307° |
| 2026-05-05 17:59 | 59.62001 | 30.78595 | 4659 ft | 248 kts | 307° |
| 2026-05-05 17:59 | 59.63117 | 30.76019 | 4350 ft | 249 kts | 307° |
| 2026-05-05 18:00 | 59.64231 | 30.73442 | 4042 ft | 247 kts | 307° |
| 2026-05-05 18:00 | 59.65346 | 30.70867 | 3741 ft | 244 kts | 308° |
| 2026-05-05 18:00 | 59.66505 | 30.68478 | 3449 ft | 243 kts | 317° |
| 2026-05-05 18:00 | 59.67904 | 30.66623 | 3337 ft | 246 kts | 328° |
| 2026-05-05 18:01 | 59.69439 | 30.65042 | 2982 ft | 249 kts | 330° |
| 2026-05-05 18:01 | 59.70984 | 30.63518 | 2639 ft | 246 kts | 331° |
| 2026-05-05 18:01 | 59.72469 | 30.62061 | 2530 ft | 234 kts | 331° |
| 2026-05-05 18:01 | 59.73877 | 30.60676 | 2490 ft | 220 kts | 330° |
| 2026-05-05 18:02 | 59.75188 | 30.59341 | 2474 ft | 204 kts | 324° |
| 2026-05-05 18:02 | 59.76076 | 30.57285 | 2477 ft | 194 kts | 293° |
| 2026-05-05 18:02 | 59.76521 | 30.54776 | 2455 ft | 194 kts | 287° |
| 2026-05-05 18:02 | 59.76893 | 30.52210 | 2327 ft | 194 kts | 286° |
| 2026-05-05 18:03 | 59.77259 | 30.49628 | 2073 ft | 191 kts | 287° |
| 2026-05-05 18:03 | 59.77601 | 30.47266 | 1890 ft | 171 kts | 287° |
| 2026-05-05 18:03 | 59.77920 | 30.45098 | 1656 ft | 157 kts | 288° |
| 2026-05-05 18:03 | 59.78216 | 30.43093 | 1411 ft | 145 kts | 288° |
| 2026-05-05 18:04 | 59.78489 | 30.41254 | 1199 ft | 134 kts | 288° |
| 2026-05-05 18:04 | 59.78742 | 30.39549 | 1033 ft | 127 kts | 288° |
| 2026-05-05 18:04 | 59.78989 | 30.37884 | 874 ft | 126 kts | 287° |
| 2026-05-05 18:04 | 59.79238 | 30.36205 | 709 ft | 125 kts | 287° |
| 2026-05-05 18:05 | 59.79482 | 30.34560 | 545 ft | 125 kts | 287° |
| 2026-05-05 18:05 | 59.79724 | 30.32924 | 374 ft | 124 kts | 286° |
| 2026-05-05 18:05 | 59.79965 | 30.31279 | 183 ft | 121 kts | 287° |
| 2026-05-05 18:05 | 59.80206 | 30.29716 | 71 ft | 112 kts | 287° |
| 2026-05-05 18:06 | 59.80379 | 30.28545 | 69 ft | 64 kts | 285° |
| 2026-05-05 18:06 | 59.80456 | 30.28023 | 71 ft | 56 kts | 286° |
| 2026-05-05 18:06 | 59.80594 | 30.27109 | 75 ft | 38 kts | 286° |
| 2026-05-05 18:06 | 59.80644 | 30.26737 | 74 ft | 15 kts | 270° |
| 2026-05-05 18:07 | 59.80593 | 30.26634 | 75 ft | 9 kts | 197° |
| 2026-05-05 18:07 | 59.80545 | 30.26603 | 76 ft | 3 kts | 196° |
| 2026-05-05 18:07 | 59.80522 | 30.26590 | 76 ft | 3 kts | 195° |
| 2026-05-05 18:07 | 59.80513 | 30.26586 | 77 ft | 0 kts | 195° |
| 2026-05-05 18:09 | 59.80496 | 30.26576 | 77 ft | 6 kts | 195° |
| 2026-05-05 18:09 | 59.80470 | 30.26564 | 77 ft | 0 kts | 181° |
| 2026-05-05 18:10 | 59.80469 | 30.26564 | 77 ft | 0 kts | 181° |
| 2026-05-05 18:10 | 59.80443 | 30.26588 | 78 ft | 6 kts | 129° |
| 2026-05-05 18:10 | 59.80425 | 30.26682 | 78 ft | 8 kts | 107° |
| 2026-05-05 18:10 | 59.80395 | 30.26750 | 79 ft | 7 kts | 178° |
| 2026-05-05 18:11 | 59.80341 | 30.26721 | 80 ft | 9 kts | 196° |
| 2026-05-05 18:11 | 59.80282 | 30.26685 | 81 ft | 8 kts | 196° |
| 2026-05-05 18:11 | 59.80217 | 30.26648 | 82 ft | 10 kts | 196° |
| 2026-05-05 18:11 | 59.80160 | 30.26613 | 84 ft | 5 kts | 201° |
| 2026-05-05 18:12 | 59.80149 | 30.26547 | 84 ft | 6 kts | 281° |
| 2026-05-05 18:12 | 59.80156 | 30.26494 | 84 ft | 0 kts | 285° |